Sea Voyager — V7QU2 — position and weather

sailwx.info

Track history (hours):
 
Tides and Currents Weather Stations Pressure Air Temp Water Temp Dewpoint Dewpoint Depression Visibility Wind Speed Wind Dir Waves Ship Positions

Sea Voyager

Last reported at 2014-Nov-24 18:03 UTC. Time now 2014-Nov-26 20:21 UTC.
Position N 08°50' E 122°31'.

Length 243 m; draft 13.9 m.

Type: Ship (hazmat cat A). MMSI: 538003439.

Date/timePositionNaut miles runAvg speedWind from/ knotsBaromVisibWave heightAir tempDewpointWater temp
2014-Nov-24 18:03N 08°50' E 122°31'713.1
2014-Nov-24 17:33N 08°51' E 122°38'1312.8
2014-Nov-24 16:33N 08°53' E 122°50'1312.6
2014-Nov-24 15:33N 08°56' E 123°03'1312.7
2014-Nov-24 14:33N 08°57' E 123°15'1212.1
2014-Nov-24 13:33N 08°59' E 123°27'1312.6
2014-Nov-24 12:33N 09°01' E 123°40'1212.5
2014-Nov-24 11:33N 09°03' E 123°53'1212.3
2014-Nov-24 10:33N 09°08' E 124°04'1312.4
2014-Nov-24 09:32N 09°13' E 124°16'  
Track history (hours):
 
Tides and Currents Weather Stations Pressure Air Temp Water Temp Dewpoint Dewpoint Depression Visibility Wind Speed Wind Dir Waves Ship Positions

Sea Voyager

Last reported at 2014-Nov-24 18:03 UTC. Time now 2014-Nov-26 20:21 UTC.
Position N 08°50' E 122°31'.

Length 243 m; draft 13.9 m.

Type: Ship (hazmat cat A). MMSI: 538003439.

Date/timePositionNaut miles runAvg speedWind from/ knotsBaromVisibWave heightAir tempDewpointWater temp
2014-Nov-24 18:03N 08°50' E 122°31'713.1
2014-Nov-24 17:33N 08°51' E 122°38'1312.8
2014-Nov-24 16:33N 08°53' E 122°50'1312.6
2014-Nov-24 15:33N 08°56' E 123°03'1312.7
2014-Nov-24 14:33N 08°57' E 123°15'1212.1
2014-Nov-24 13:33N 08°59' E 123°27'1312.6
2014-Nov-24 12:33N 09°01' E 123°40'1212.5
2014-Nov-24 11:33N 09°03' E 123°53'1212.3
2014-Nov-24 10:33N 09°08' E 124°04'1312.4
2014-Nov-24 09:32N 09°13' E 124°16'  

Dump ship's entire track history